Time;durP1;ratioP1;P1;durP2;ratioP2;P2;SDS_P1;SDS_P2;PMS_P1;PMS_P2;Temp;Humidity;BMP_temperature;BMP_pressure;BME280_temperature;BME280_humidity;BME280_pressure;Samples;Min_cycle;Max_cycle;Signal;HPM_P1;HPM_P2
2022/06/23 04:22:40;;;;;;;14.65;9.70;;;;;;;16.60;100.00;99918.38;5108999;27;20380;-76
2022/06/23 04:25:11;;;;;;;12.52;7.97;;;;;;;16.60;100.00;99919.19;5108110;28;20036;-76
2022/06/23 04:27:46;;;;;;;11.43;7.28;;;;;;;16.58;100.00;99925.84;5071444;28;20039;-76
2022/06/23 04:30:35;;;;;;;12.48;8.70;;;;;;;16.63;100.00;99918.78;5089369;28;20443;-76
2022/06/23 04:33:05;;;;;;;10.68;8.13;;;;;;;16.68;100.00;99923.47;5087375;28;20036;-74
2022/06/23 04:35:36;;;;;;;13.77;7.70;;;;;;;16.70;100.00;99924.13;5104345;28;20480;-74
2022/06/23 04:38:11;;;;;;;11.18;6.95;;;;;;;16.76;100.00;99929.44;5087631;28;20102;-75
2022/06/23 04:40:43;;;;;;;10.02;7.90;;;;;;;16.82;100.00;99933.09;5088744;28;20040;-74
2022/06/23 04:43:34;;;;;;;10.18;7.15;;;;;;;16.91;100.00;99925.56;5088454;28;20040;-74
2022/06/23 04:46:19;;;;;;;13.60;7.65;;;;;;;17.01;100.00;99926.69;5087479;28;20122;-74
2022/06/23 04:49:22;;;;;;;9.90;6.57;;;;;;;17.08;100.00;99916.69;5088659;28;20058;-75
2022/06/23 04:52:27;;;;;;;10.65;6.70;;;;;;;17.17;100.00;99930.66;5087991;28;20051;-74
2022/06/23 04:55:12;;;;;;;11.43;7.00;;;;;;;17.26;100.00;99933.88;5079795;28;20040;-75
2022/06/23 04:57:50;;;;;;;11.05;6.55;;;;;;;17.34;100.00;99933.56;5088607;28;20040;-75
2022/06/23 05:00:31;;;;;;;14.68;6.80;;;;;;;17.43;100.00;99937.63;5088526;28;20028;-75
2022/06/23 05:03:04;;;;;;;8.68;5.85;;;;;;;17.52;100.00;99936.25;5071502;28;20047;-78
2022/06/23 05:05:34;;;;;;;9.27;5.55;;;;;;;17.62;100.00;99927.66;5088469;28;20036;-73
2022/06/23 05:08:12;;;;;;;9.60;5.97;;;;;;;17.70;100.00;99932.72;5088555;28;20373;-73
2022/06/23 05:10:59;;;;;;;12.68;6.15;;;;;;;17.80;100.00;99926.81;5088476;28;20032;-74
2022/06/23 05:13:30;;;;;;;9.68;5.47;;;;;;;17.85;100.00;99924.25;5088059;28;20028;-74
2022/06/23 05:16:05;;;;;;;10.30;5.63;;;;;;;17.99;100.00;99925.72;5088142;28;20044;-74
2022/06/23 05:18:45;;;;;;;7.50;5.10;;;;;;;18.11;100.00;99926.56;5086841;28;20128;-73
2022/06/23 05:21:18;;;;;;;11.85;5.60;;;;;;;18.20;100.00;99918.19;5087870;28;20485;-73
2022/06/23 05:23:59;;;;;;;9.82;4.57;;;;;;;18.30;100.00;99924.63;5087945;28;20074;-74
2022/06/23 05:26:30;;;;;;;9.38;5.05;;;;;;;18.38;100.00;99931.56;5088057;28;20036;-73
2022/06/23 05:29:02;;;;;;;13.85;5.15;;;;;;;18.46;100.00;99930.44;5087987;28;20064;-74
2022/06/23 05:31:32;;;;;;;9.15;4.90;;;;;;;18.52;100.00;99929.47;5087728;28;20028;-73
2022/06/23 05:34:04;;;;;;;8.18;4.20;;;;;;;18.61;100.00;99936.19;5074041;28;20043;-73
2022/06/23 05:36:41;;;;;;;10.45;5.15;;;;;;;18.70;100.00;99929.41;5072927;28;20044;-74
2022/06/23 05:39:22;;;;;;;8.93;4.20;;;;;;;18.83;100.00;99928.34;5072970;28;20073;-74
2022/06/23 05:41:52;;;;;;;8.10;4.28;;;;;;;19.00;100.00;99933.88;5073992;28;20033;-75
2022/06/23 05:44:20;;;;;;;10.48;4.60;;;;;;;19.17;100.00;99938.31;5063596;28;20036;-77
2022/06/23 05:46:48;;;;;;;11.23;4.32;;;;;;;19.25;100.00;99935.25;5071465;28;20036;-79
2022/06/23 05:49:20;;;;;;;7.75;4.03;;;;;;;19.33;100.00;99941.34;5074702;28;20040;-79
2022/06/23 05:51:59;;;;;;;11.68;4.10;;;;;;;19.43;100.00;99939.69;5075338;28;20040;-78
2022/06/23 05:54:49;;;;;;;11.13;3.65;;;;;;;19.51;100.00;99938.47;5076269;28;20037;-78
2022/06/23 05:57:51;;;;;;;8.38;4.80;;;;;;;19.70;100.00;99945.38;5073899;28;20426;-78
2022/06/23 06:00:19;;;;;;;11.13;4.18;;;;;;;19.97;100.00;99944.81;5074588;28;20040;-79
2022/06/23 06:02:54;;;;;;;8.48;4.15;;;;;;;20.15;97.29;99939.22;5075949;28;20046;-79
2022/06/23 06:05:35;;;;;;;9.60;4.18;;;;;;;20.12;96.11;99933.44;5077493;28;20154;-78
2022/06/23 06:08:14;;;;;;;8.90;4.18;;;;;;;20.15;95.36;99939.22;5078017;28;20476;-79
2022/06/23 06:10:40;;;;;;;12.18;4.50;;;;;;;20.16;95.78;99943.53;5077524;28;20064;-78
2022/06/23 06:13:14;;;;;;;9.30;4.10;;;;;;;20.15;96.17;99939.22;5075070;28;20044;-79
2022/06/23 06:15:46;;;;;;;10.07;4.38;;;;;;;20.18;96.96;99933.28;5075883;28;20036;-79
2022/06/23 06:18:28;;;;;;;10.48;4.90;;;;;;;20.19;97.14;99936.81;5076277;28;20028;-78
2022/06/23 06:20:57;;;;;;;9.50;4.43;;;;;;;20.23;95.80;99929.88;5058420;28;20047;-79
2022/06/23 06:23:44;;;;;;;12.25;4.53;;;;;;;20.24;96.22;99926.09;5058104;28;20047;-80
2022/06/23 06:26:14;;;;;;;8.00;4.18;;;;;;;20.22;95.40;99928.22;5075949;28;20051;-80
2022/06/23 06:28:40;;;;;;;14.45;4.50;;;;;;;20.27;96.43;99922.88;5075695;28;20032;-80
2022/06/23 06:31:27;;;;;;;8.18;4.13;;;;;;;20.33;96.48;99925.44;5074655;28;20036;-76
2022/06/23 06:34:05;;;;;;;7.03;4.22;;;;;;;20.40;95.31;99921.75;5077395;28;20032;-82
2022/06/23 06:36:37;;;;;;;;;;;;;;;20.43;94.64;99930.22;5076102;28;20033;-80
2022/06/23 06:39:11;;;;;;;9.63;3.85;;;;;;;20.48;94.59;99927.63;5077272;28;19913;-82
2022/06/23 06:41:38;;;;;;;10.32;5.13;;;;;;;20.56;95.85;99929.91;5077637;28;20033;-82
2022/06/23 06:44:04;;;;;;;;;;;;;;;20.56;95.11;99919.09;5054856;28;20025;-80
2022/06/23 06:46:30;;;;;;;7.60;3.70;;;;;;;20.61;94.53;99918.34;5057169;28;19916;-80
2022/06/23 06:48:57;;;;;;;10.50;4.40;;;;;;;20.67;93.63;99925.50;5056398;28;20062;-79
2022/06/23 06:51:25;;;;;;;7.63;4.07;;;;;;;20.77;93.98;99933.75;5055048;28;20496;-76
2022/06/23 06:54:20;;;;;;;9.43;4.22;;;;;;;20.88;94.38;99925.78;5052087;28;20381;-77
2022/06/23 06:56:59;;;;;;;11.27;4.78;;;;;;;20.91;91.87;99928.81;5047243;28;20059;-77
2022/06/23 06:59:45;;;;;;;11.07;3.80;;;;;;;20.96;92.53;99923.47;5068157;28;20075;-76
2022/06/23 07:02:19;;;;;;;13.98;4.55;;;;;;;21.04;93.67;99931.16;5052522;28;20460;-76
2022/06/23 07:04:57;;;;;;;10.70;4.03;;;;;;;21.14;92.02;99934.03;5052687;28;20041;-76
2022/06/23 07:07:29;;;;;;;11.40;4.35;;;;;;;21.26;92.43;99939.34;5052719;28;20044;-76
2022/06/23 07:10:16;;;;;;;10.65;4.10;;;;;;;21.32;91.81;99941.06;5052918;28;20069;-77
2022/06/23 07:12:49;;;;;;;10.48;3.92;;;;;;;21.42;91.14;99940.38;5052311;28;20493;-77
2022/06/23 07:15:29;;;;;;;12.85;4.15;;;;;;;21.54;90.47;99934.81;5052486;28;20064;-77
2022/06/23 07:18:17;;;;;;;11.05;4.03;;;;;;;21.64;89.52;99945.78;5052703;28;20112;-77
2022/06/23 07:21:05;;;;;;;10.77;4.55;;;;;;;21.76;87.13;99943.75;5052056;28;20084;-77
2022/06/23 07:23:52;;;;;;;10.00;4.35;;;;;;;21.91;86.83;99940.41;5052697;28;20029;-77
2022/06/23 07:26:17;;;;;;;10.77;4.53;;;;;;;21.95;85.65;99942.34;5052717;28;20423;-77
2022/06/23 07:28:50;;;;;;;14.07;4.07;;;;;;;22.10;84.76;99935.44;5053442;28;20035;-76
2022/06/23 07:31:30;;;;;;;11.80;4.95;;;;;;;22.20;82.67;99933.66;5052801;28;20033;-76
2022/06/23 07:34:01;;;;;;;8.27;4.10;;;;;;;22.25;83.05;99932.91;5052317;28;20040;-76
2022/06/23 07:36:46;;;;;;;13.50;4.65;;;;;;;22.26;82.04;99923.69;5051944;28;20044;-76
2022/06/23 07:39:17;;;;;;;15.48;4.13;;;;;;;22.42;81.98;99917.28;5051903;28;20068;-76
2022/06/23 07:41:49;;;;;;;12.82;4.18;;;;;;;22.61;82.29;99925.84;5051536;28;20025;-75
2022/06/23 07:44:30;;;;;;;8.68;4.10;;;;;;;22.68;81.06;99925.63;5051759;28;20118;-77
2022/06/23 07:46:56;;;;;;;11.88;4.15;;;;;;;22.69;79.70;99921.84;5051763;28;20041;-76
2022/06/23 07:49:22;;;;;;;11.32;4.13;;;;;;;22.83;78.69;99919.50;5051913;28;20039;-75
2022/06/23 07:51:48;;;;;;;6.35;3.65;;;;;;;23.07;75.14;99922.66;5051606;28;20083;-76
2022/06/23 07:54:18;;;;;;;7.97;3.58;;;;;;;23.18;76.84;99933.31;5051904;28;20045;-76
2022/06/23 07:56:44;;;;;;;8.93;4.05;;;;;;;23.31;75.34;99928.50;5051606;28;20044;-77
2022/06/23 07:59:14;;;;;;;8.48;3.67;;;;;;;23.38;74.66;99920.91;5051639;28;20029;-76
2022/06/23 08:01:45;;;;;;;8.07;3.67;;;;;;;23.45;73.42;99918.78;5051487;28;20120;-77
2022/06/23 08:04:25;;;;;;;9.65;3.55;;;;;;;23.59;73.48;99919.09;5051663;28;20059;-75
2022/06/23 08:06:52;;;;;;;11.05;3.80;;;;;;;23.61;71.45;99916.94;5051466;28;20033;-75
2022/06/23 08:09:56;;;;;;;7.73;3.77;;;;;;;23.67;68.16;99907.72;5050299;28;20485;-75
2022/06/23 08:12:58;;;;;;;9.57;3.53;;;;;;;23.83;71.59;99914.84;5050792;28;20041;-76
2022/06/23 08:18:47;;;;;;;9.60;3.57;;;;;;;23.81;69.13;99900.72;5051613;28;20041;-77
2022/06/23 08:21:24;;;;;;;11.93;3.28;;;;;;;23.90;66.99;99903.72;5051377;28;20029;-76
2022/06/23 08:23:59;;;;;;;10.68;3.25;;;;;;;24.06;65.27;99902.63;5051412;28;20033;-76
2022/06/23 08:26:26;;;;;;;11.57;3.90;;;;;;;24.28;65.78;99899.69;5051746;28;20036;-76
2022/06/23 08:28:57;;;;;;;6.18;3.38;;;;;;;24.15;66.29;99898.31;5050256;28;20052;-76
2022/06/23 08:31:24;;;;;;;10.45;3.38;;;;;;;24.48;67.30;99888.81;5050024;28;20087;-76
2022/06/23 08:33:50;;;;;;;9.57;3.70;;;;;;;24.65;67.02;99883.09;5051196;28;20041;-76
2022/06/23 08:36:21;;;;;;;9.80;3.92;;;;;;;24.66;66.04;99884.72;5066623;28;20059;-76
2022/06/23 08:38:59;;;;;;;14.02;4.20;;;;;;;24.80;66.81;99874.88;5051441;28;20415;-77
2022/06/23 08:41:40;;;;;;;10.43;3.40;;;;;;;24.95;65.48;99867.75;5049974;28;20069;-75
2022/06/23 08:44:14;;;;;;;8.00;3.25;;;;;;;25.01;65.22;99866.63;5051142;28;20045;-76
2022/06/23 08:46:53;;;;;;;10.32;4.05;;;;;;;25.17;64.45;99855.44;5051121;28;20051;-76
2022/06/23 08:49:30;;;;;;;8.82;4.43;;;;;;;25.49;65.71;99854.19;5051171;28;20051;-77
2022/06/23 08:52:09;;;;;;;12.45;3.55;;;;;;;25.72;65.71;99860.88;5052860;28;20102;-77
2022/06/23 08:54:45;;;;;;;10.73;3.90;;;;;;;25.80;62.41;99856.75;5066817;28;20040;-78
2022/06/23 08:57:19;;;;;;;9.80;3.90;;;;;;;25.88;62.09;99859.69;5051469;28;20063;-77
2022/06/23 08:59:59;;;;;;;9.70;3.70;;;;;;;25.99;61.67;99857.72;5051482;28;20032;-76
2022/06/23 09:02:27;;;;;;;7.70;3.88;;;;;;;26.01;63.73;99854.69;5051293;28;20033;-77
2022/06/23 09:05:15;;;;;;;10.10;4.22;;;;;;;26.07;62.63;99851.63;5051286;28;20037;-77
2022/06/23 09:07:58;;;;;;;10.52;4.57;;;;;;;26.33;64.91;99852.25;5051947;28;20547;-77
2022/06/23 09:10:34;;;;;;;10.23;4.47;;;;;;;26.57;61.90;99852.31;5055468;28;20051;-79
2022/06/23 09:13:11;;;;;;;8.43;4.22;;;;;;;26.72;61.41;99854.09;5070430;28;20036;-77
2022/06/23 09:16:04;;;;;;;11.82;4.57;;;;;;;27.02;60.90;99852.94;5054825;28;20040;-77
2022/06/23 09:18:53;;;;;;;9.32;4.25;;;;;;;26.84;60.54;99845.50;5055403;28;20058;-76
2022/06/23 09:21:33;;;;;;;11.88;4.13;;;;;;;26.99;59.82;99845.31;5054735;28;20029;-77
2022/06/23 09:24:14;;;;;;;11.25;4.00;;;;;;;27.07;58.87;99833.78;5054827;28;20040;-76
2022/06/23 09:26:47;;;;;;;10.52;4.07;;;;;;;27.38;59.96;99830.63;5054537;28;20119;-76
2022/06/23 09:29:37;;;;;;;6.55;3.65;;;;;;;27.49;58.93;99829.38;5054405;28;20116;-76
2022/06/23 09:32:33;;;;;;;7.93;3.90;;;;;;;27.50;58.05;99823.63;5052895;28;20065;-76
2022/06/23 09:35:31;;;;;;;7.75;4.05;;;;;;;27.67;57.55;99825.84;5054427;28;20039;-76
2022/06/23 09:38:02;;;;;;;10.07;3.88;;;;;;;27.88;56.77;99836.50;5053345;28;20079;-77
2022/06/23 09:40:46;;;;;;;8.20;3.88;;;;;;;28.06;54.90;99827.44;5069330;28;20067;-75
2022/06/23 09:43:40;;;;;;;7.45;3.33;;;;;;;27.94;56.87;99818.88;5054019;28;20467;-75
2022/06/23 09:46:23;;;;;;;9.18;3.67;;;;;;;28.11;57.09;99810.94;5054044;28;20508;-75
2022/06/23 09:49:08;;;;;;;10.75;3.65;;;;;;;28.49;53.76;99808.91;5054025;28;20115;-76
2022/06/23 09:51:50;;;;;;;8.15;3.30;;;;;;;28.73;54.95;99818.88;5053781;28;20060;-75
2022/06/23 09:54:52;;;;;;;10.43;3.78;;;;;;;28.52;53.89;99810.25;5054096;28;20478;-75
2022/06/23 09:57:21;;;;;;;10.55;3.63;;;;;;;28.94;52.70;99814.63;5052553;28;20059;-76
2022/06/23 10:00:11;;;;;;;10.07;3.65;;;;;;;28.79;53.13;99807.50;5052276;28;20027;-75
2022/06/23 10:02:58;;;;;;;10.10;3.75;;;;;;;29.10;52.56;99805.00;5053588;28;20068;-75
2022/06/23 10:05:43;;;;;;;;;;;;;;;29.35;50.28;99800.06;5054536;28;20535;-75
2022/06/23 10:08:27;;;;;;;9.30;3.40;;;;;;;29.19;51.24;99799.59;5053855;28;19928;-75
2022/06/23 10:11:17;;;;;;;8.23;3.58;;;;;;;29.35;50.54;99798.13;5053775;28;20028;-74
2022/06/23 10:14:24;;;;;;;8.05;3.75;;;;;;;29.33;50.31;99791.31;5051935;28;20044;-75
2022/06/23 10:17:04;;;;;;;6.60;3.00;;;;;;;29.83;50.21;99792.09;5053423;28;20051;-75
2022/06/23 10:19:48;;;;;;;8.30;3.38;;;;;;;30.16;50.18;99784.44;5053418;28;20045;-76
2022/06/23 10:22:33;;;;;;;7.00;2.97;;;;;;;30.00;48.40;99781.25;5052857;28;20043;-76
2022/06/23 10:25:21;;;;;;;8.45;3.00;;;;;;;29.62;48.52;99780.00;5053324;28;20033;-74
2022/06/23 10:27:59;;;;;;;9.55;3.53;;;;;;;30.34;47.00;99776.28;5053281;28;20043;-77
2022/06/23 10:30:37;;;;;;;6.25;3.30;;;;;;;30.46;47.04;99780.06;5053785;28;20036;-77
2022/06/23 10:33:27;;;;;;;6.40;3.00;;;;;;;30.52;46.35;99778.78;5051833;28;20037;-76
2022/06/23 10:35:55;;;;;;;7.80;2.75;;;;;;;31.21;44.47;99771.88;5053100;28;20113;-76
2022/06/23 10:38:30;;;;;;;6.45;2.70;;;;;;;31.02;45.35;99767.47;5053150;28;20080;-77
2022/06/23 10:41:25;;;;;;;8.70;3.22;;;;;;;31.29;42.31;99777.41;5052890;28;20405;-75
2022/06/23 10:44:14;;;;;;;6.85;2.67;;;;;;;31.91;41.61;99768.03;5052990;28;20454;-75
2022/06/23 10:47:06;;;;;;;7.40;2.58;;;;;;;31.96;41.29;99765.09;5024375;28;20110;-76
2022/06/23 10:49:53;;;;;;;6.72;2.90;;;;;;;32.13;42.77;99764.25;5052985;28;20037;-76
2022/06/23 10:52:45;;;;;;;7.22;2.47;;;;;;;32.30;42.33;99750.41;5052555;28;20041;-77
2022/06/23 10:55:41;;;;;;;6.72;2.53;;;;;;;32.85;40.05;99745.94;5052949;28;20033;-77
2022/06/23 10:58:21;;;;;;;8.38;3.28;;;;;;;32.78;40.14;99748.44;5052677;28;20382;-76
2022/06/23 11:00:50;;;;;;;6.03;2.60;;;;;;;32.25;41.44;99749.78;5052539;28;20422;-77
2022/06/23 11:03:52;;;;;;;5.07;2.45;;;;;;;32.69;40.83;99751.25;5052277;28;20040;-77
2022/06/23 11:06:46;;;;;;;6.65;2.35;;;;;;;32.25;40.96;99741.53;5052646;28;20449;-76
2022/06/23 11:09:17;;;;;;;8.32;2.60;;;;;;;32.94;40.92;99741.25;5052783;28;20331;-77
2022/06/23 11:11:52;;;;;;;6.07;2.75;;;;;;;32.89;39.73;99733.16;5051244;28;20474;-77
2022/06/23 11:14:45;;;;;;;5.38;2.50;;;;;;;33.56;39.22;99728.59;5053290;28;20033;-77
2022/06/23 11:17:30;;;;;;;7.75;2.95;;;;;;;33.71;39.46;99736.22;5052461;28;20044;-77
2022/06/23 11:20:34;;;;;;;7.15;2.90;;;;;;;33.75;39.33;99737.19;5052494;28;20037;-76
2022/06/23 11:23:23;;;;;;;6.88;3.10;;;;;;;34.15;38.01;99726.34;5068229;28;20037;-78
2022/06/23 11:26:01;;;;;;;7.95;2.97;;;;;;;33.99;37.85;99723.47;5052410;28;20113;-76
2022/06/23 11:29:03;;;;;;;6.50;2.40;;;;;;;34.34;36.07;99716.72;5052544;28;20174;-77
2022/06/23 11:31:51;;;;;;;6.43;2.60;;;;;;;34.13;37.55;99703.81;5053148;28;20044;-78
2022/06/23 11:34:19;;;;;;;8.15;2.42;;;;;;;34.80;36.27;99702.41;5052655;28;20041;-77
2022/06/23 11:37:03;;;;;;;7.40;2.40;;;;;;;34.30;37.16;99700.03;5052166;28;20037;-76
2022/06/23 11:39:49;;;;;;;6.40;2.30;;;;;;;34.67;36.99;99695.28;5052131;28;20033;-76
2022/06/23 11:42:50;;;;;;;5.97;2.58;;;;;;;35.08;35.95;99688.69;5052052;28;20718;-77
2022/06/23 11:45:26;;;;;;;5.70;2.72;;;;;;;33.90;36.76;99683.22;5053026;28;20060;-78
2022/06/23 11:48:18;;;;;;;7.10;2.45;;;;;;;33.50;36.96;99685.78;5052845;28;20421;-76
2022/06/23 11:50:51;;;;;;;7.78;2.75;;;;;;;34.10;37.02;99671.31;5051777;28;20059;-77
2022/06/23 11:53:35;;;;;;;8.13;2.60;;;;;;;34.21;36.24;99674.44;5051751;28;20060;-76
2022/06/23 11:56:08;;;;;;;6.60;2.60;;;;;;;33.86;36.99;99665.75;5051779;28;20040;-76
2022/06/23 11:58:52;;;;;;;3.97;2.40;;;;;;;34.87;36.55;99665.88;5051974;28;20059;-77
2022/06/23 12:01:20;;;;;;;7.07;3.13;;;;;;;35.04;34.60;99660.09;5051850;28;20025;-77
2022/06/23 12:03:51;;;;;;;8.55;3.22;;;;;;;34.75;35.51;99652.88;5052132;28;20049;-77
2022/06/23 12:06:40;;;;;;;5.15;2.40;;;;;;;35.09;34.84;99650.75;5052811;28;20075;-77
2022/06/23 12:09:35;;;;;;;9.00;2.60;;;;;;;35.36;34.32;99651.91;5050444;28;20052;-76
2022/06/23 12:12:02;;;;;;;7.35;3.00;;;;;;;35.80;33.41;99641.63;5051364;28;20120;-77
2022/06/23 12:14:28;;;;;;;6.65;2.70;;;;;;;36.06;33.70;99645.84;5051469;28;20029;-76
2022/06/23 12:16:59;;;;;;;5.90;2.30;;;;;;;36.17;34.16;99649.69;5051418;28;20067;-76
2022/06/23 12:19:43;;;;;;;8.05;2.63;;;;;;;36.51;32.09;99639.00;5051557;28;20037;-76
2022/06/23 12:22:20;;;;;;;5.90;2.58;;;;;;;36.00;33.87;99639.78;5051468;28;20112;-77
2022/06/23 12:25:03;;;;;;;7.10;2.70;;;;;;;36.00;33.17;99633.44;5051643;28;20175;-77
2022/06/23 12:27:39;;;;;;;9.48;3.05;;;;;;;35.45;33.63;99632.38;5051647;28;20029;-75
2022/06/23 12:30:15;;;;;;;7.20;2.65;;;;;;;36.09;32.72;99629.31;5051687;28;20482;-77
2022/06/23 12:32:56;;;;;;;7.20;2.55;;;;;;;35.23;34.09;99620.72;5051335;28;20067;-76
2022/06/23 12:35:29;;;;;;;6.30;2.53;;;;;;;35.42;33.30;99625.59;5067534;28;20044;-77
2022/06/23 12:38:06;;;;;;;8.43;2.70;;;;;;;36.17;31.90;99630.28;5051324;28;20520;-77
2022/06/23 12:40:49;;;;;;;7.45;2.42;;;;;;;35.79;33.12;99623.38;5051636;28;20118;-76
2022/06/23 12:43:27;;;;;;;4.50;2.60;;;;;;;35.60;32.90;99620.50;5053323;28;20040;-76
2022/06/23 12:45:59;;;;;;;7.25;3.20;;;;;;;36.44;31.47;99613.91;5055306;28;20112;-77
2022/06/23 12:48:28;;;;;;;7.45;3.42;;;;;;;36.75;30.78;99607.44;5055218;28;20071;-76
2022/06/23 12:51:08;;;;;;;6.07;2.67;;;;;;;36.62;31.36;99598.47;5053825;28;20029;-77
2022/06/23 12:54:12;;;;;;;9.52;2.75;;;;;;;36.87;31.50;99605.38;5053724;28;20040;-76
2022/06/23 12:56:40;;;;;;;7.57;2.60;;;;;;;36.99;31.70;99596.09;5054933;28;20060;-76
2022/06/23 12:59:17;;;;;;;5.88;2.38;;;;;;;37.28;29.56;99586.34;5055081;28;20079;-77
2022/06/23 13:01:54;;;;;;;6.28;2.40;;;;;;;36.95;31.56;99584.13;5054727;28;20056;-77
2022/06/23 13:04:31;;;;;;;8.23;2.47;;;;;;;36.45;32.32;99571.13;5055052;28;20036;-77
2022/06/23 13:07:07;;;;;;;6.88;2.60;;;;;;;37.07;30.22;99580.38;5054974;28;20163;-76
2022/06/23 13:09:44;;;;;;;9.40;3.42;;;;;;;36.54;30.58;99575.31;5053782;28;20036;-76
2022/06/23 13:12:53;;;;;;;7.90;2.58;;;;;;;36.50;31.47;99568.88;5054422;28;20405;-77
2022/06/23 13:15:41;;;;;;;5.95;2.50;;;;;;;36.02;31.21;99564.63;5038738;28;20044;-78
2022/06/23 13:18:14;;;;;;;6.25;2.42;;;;;;;34.94;33.07;99560.19;5054931;28;20036;-77
2022/06/23 13:20:58;;;;;;;5.60;2.00;;;;;;;34.35;34.12;99567.09;5054709;28;20123;-76
2022/06/23 13:23:37;;;;;;;7.82;2.80;;;;;;;34.13;34.13;99560.13;5054536;28;20494;-75
2022/06/23 13:26:17;;;;;;;5.82;2.33;;;;;;;34.27;34.52;99554.22;5054408;28;20083;-76
2022/06/23 13:28:44;;;;;;;6.78;2.50;;;;;;;33.57;34.72;99537.75;5054573;28;20059;-76
2022/06/23 13:31:17;;;;;;;6.60;2.72;;;;;;;33.58;35.65;99542.16;5054539;28;20108;-76
2022/06/23 13:33:56;;;;;;;6.25;2.50;;;;;;;33.43;35.80;99529.00;5054516;28;20029;-76
2022/06/23 13:37:00;;;;;;;9.18;2.88;;;;;;;33.07;37.44;99530.53;5070102;28;20044;-75
2022/06/23 13:39:40;;;;;;;5.72;2.50;;;;;;;32.71;38.07;99530.34;5053122;28;20040;-76
2022/06/23 13:42:33;;;;;;;9.07;2.70;;;;;;;32.61;38.14;99526.06;5053980;28;20045;-76
2022/06/23 13:45:17;;;;;;;7.35;2.30;;;;;;;32.87;37.35;99526.69;5086647;28;20407;-76
2022/06/23 13:48:08;;;;;;;5.60;2.30;;;;;;;32.81;37.85;99513.41;5054102;28;20033;-75
2022/06/23 13:50:47;;;;;;;5.78;2.53;;;;;;;32.59;37.87;99515.38;5054236;28;20037;-76
2022/06/23 13:53:21;;;;;;;6.70;2.63;;;;;;;32.71;37.37;99502.78;5053293;28;20033;-77
2022/06/23 13:55:57;;;;;;;8.25;2.40;;;;;;;32.51;37.64;99505.22;5053964;28;20037;-76
2022/06/23 13:58:45;;;;;;;8.20;2.47;;;;;;;32.59;37.36;99498.81;5054022;28;20044;-75
2022/06/23 14:01:41;;;;;;;6.97;2.60;;;;;;;32.60;38.00;99507.91;5043195;28;20389;-76
2022/06/23 14:04:16;;;;;;;6.05;2.50;;;;;;;32.46;37.24;99501.88;5053979;28;20029;-78
2022/06/23 14:06:47;;;;;;;5.18;2.03;;;;;;;32.41;37.53;99500.13;5052684;28;20513;-77
2022/06/23 14:09:27;;;;;;;5.50;2.20;;;;;;;32.38;37.77;99496.09;5052745;28;20044;-76
2022/06/23 14:11:55;;;;;;;5.60;2.35;;;;;;;32.06;37.50;99503.09;5053763;28;20073;-75
2022/06/23 14:14:47;;;;;;;6.68;2.40;;;;;;;31.95;37.03;99490.03;5053608;28;20401;-76
2022/06/23 14:17:18;;;;;;;10.50;2.60;;;;;;;31.82;38.27;99489.16;5053514;28;20532;-76
2022/06/23 14:19:46;;;;;;;6.63;2.22;;;;;;;31.87;37.79;99477.94;5053751;28;20120;-76
2022/06/23 14:22:21;;;;;;;8.15;2.63;;;;;;;31.91;38.11;99484.41;5053506;28;20652;-76
2022/06/23 14:24:58;;;;;;;6.85;2.35;;;;;;;31.97;37.64;99477.56;5053432;28;20035;-77
2022/06/23 14:27:42;;;;;;;7.90;2.88;;;;;;;32.01;37.41;99473.00;5053780;28;20043;-76
2022/06/23 14:30:17;;;;;;;7.00;2.55;;;;;;;31.77;38.19;99467.31;5052753;28;20064;-76
2022/06/23 14:32:51;;;;;;;9.27;2.65;;;;;;;31.99;37.46;99469.78;5053083;28;20041;-77
2022/06/23 14:35:35;;;;;;;6.50;2.17;;;;;;;31.69;37.89;99468.16;5053186;28;20112;-77
2022/06/23 14:38:22;;;;;;;4.57;2.20;;;;;;;31.67;38.25;99470.44;5053647;28;20028;-77
2022/06/23 14:41:06;;;;;;;;;;;;;;;31.65;39.70;99462.50;5056160;28;20175;-78
2022/06/23 14:43:53;;;;;;;7.03;2.88;;;;;;;31.68;37.83;99461.84;5070257;28;19935;-79
2022/06/23 14:46:28;;;;;;;5.97;2.40;;;;;;;31.67;39.65;99462.19;5057544;28;20215;-79
2022/06/23 14:49:24;;;;;;;7.75;2.53;;;;;;;31.36;38.81;99457.78;5073469;28;20042;-80
2022/06/23 14:52:24;;;;;;;6.10;2.50;;;;;;;31.45;40.87;99450.31;5053402;28;20064;-78
2022/06/23 14:54:55;;;;;;;7.43;2.28;;;;;;;31.54;39.08;99448.31;5042950;28;20044;-80
2022/06/23 14:58:04;;;;;;;8.52;2.63;;;;;;;31.60;37.86;99452.50;5056595;28;20396;-79
2022/06/23 15:00:56;;;;;;;5.00;2.25;;;;;;;31.55;37.95;99447.19;5022754;28;20041;-77
2022/06/23 15:04:16;;;;;;;8.30;2.83;;;;;;;31.37;37.93;99445.66;5054785;28;20029;-78
2022/06/23 15:06:46;;;;;;;6.20;2.30;;;;;;;31.44;37.87;99436.91;5038749;28;20037;-78
2022/06/23 15:09:16;;;;;;;6.30;2.20;;;;;;;31.30;37.66;99435.19;5069869;28;20155;-78
2022/06/23 15:11:55;;;;;;;5.93;2.40;;;;;;;31.31;38.57;99425.78;5055324;28;20126;-79
2022/06/23 15:15:05;;;;;;;7.25;2.80;;;;;;;31.29;38.78;99438.25;5054799;28;20044;-78
2022/06/23 15:17:43;;;;;;;8.52;2.58;;;;;;;31.24;37.76;99425.50;5038158;28;20057;-78
2022/06/23 15:20:21;;;;;;;6.57;2.88;;;;;;;31.26;37.69;99428.72;5054895;28;20075;-78
2022/06/23 15:23:14;;;;;;;10.30;3.25;;;;;;;31.23;37.44;99425.78;5070376;28;20033;-78
2022/06/23 15:26:02;;;;;;;11.60;3.20;;;;;;;31.08;36.58;99429.88;5053594;28;20040;-78
2022/06/23 15:28:42;;;;;;;7.65;2.80;;;;;;;30.99;37.11;99424.44;5054618;28;20047;-78
2022/06/23 15:31:35;;;;;;;7.13;2.90;;;;;;;30.99;38.02;99420.88;5054239;28;20113;-77
2022/06/23 15:34:28;;;;;;;9.98;3.58;;;;;;;30.87;37.83;99412.50;5053781;28;20056;-78
2022/06/23 15:37:04;;;;;;;9.88;2.78;;;;;;;30.86;38.82;99414.44;5054577;28;20040;-79
2022/06/23 15:39:58;;;;;;;8.65;3.00;;;;;;;30.73;37.34;99409.97;5054869;28;20037;-79
2022/06/23 15:42:43;;;;;;;8.68;3.15;;;;;;;30.63;38.88;99402.00;5042398;28;20052;-77
2022/06/23 15:45:28;;;;;;;8.32;2.92;;;;;;;30.61;38.58;99393.31;5054298;28;20103;-79
2022/06/23 15:48:12;;;;;;;12.38;2.75;;;;;;;30.63;38.95;99407.50;5055551;28;20119;-78
2022/06/23 15:50:55;;;;;;;11.63;3.05;;;;;;;30.56;38.37;99409.94;5053003;28;20041;-77
2022/06/23 15:53:30;;;;;;;12.57;2.90;;;;;;;30.54;39.74;99413.84;5052530;28;20037;-76
2022/06/23 15:56:17;;;;;;;6.60;2.30;;;;;;;30.42;40.16;99408.19;5052198;28;20499;-77
2022/06/23 15:59:06;;;;;;;11.35;2.47;;;;;;;30.58;38.62;99402.19;5067228;28;20051;-77
2022/06/23 16:01:50;;;;;;;6.43;2.80;;;;;;;30.68;38.56;99397.19;5051889;28;20044;-77
2022/06/23 16:04:19;;;;;;;6.25;2.65;;;;;;;30.76;38.11;99406.53;5067248;28;20186;-76
2022/06/23 16:06:49;;;;;;;6.18;1.92;;;;;;;30.75;37.79;99392.00;5051567;28;20037;-76
2022/06/23 16:09:28;;;;;;;7.50;2.55;;;;;;;30.73;37.87;99396.22;5051719;28;20454;-77
2022/06/23 16:11:57;;;;;;;6.60;2.28;;;;;;;30.70;38.21;99388.59;5052557;28;20066;-77
2022/06/23 16:14:42;;;;;;;6.22;2.30;;;;;;;30.66;37.91;99395.88;5051690;28;20098;-77
2022/06/23 16:17:16;;;;;;;8.15;2.40;;;;;;;30.64;38.07;99390.69;5051750;28;20037;-76
2022/06/23 16:19:47;;;;;;;6.80;2.90;;;;;;;30.65;37.97;99386.03;5051556;28;20036;-76
2022/06/23 16:22:37;;;;;;;9.32;2.50;;;;;;;30.65;37.48;99383.28;5051122;28;20470;-76
2022/06/23 16:25:14;;;;;;;6.80;2.08;;;;;;;30.56;37.90;99377.78;5051528;28;20072;-76
2022/06/23 16:27:55;;;;;;;7.32;2.30;;;;;;;30.56;38.30;99386.03;5051850;28;20028;-77
2022/06/23 16:30:34;;;;;;;9.05;2.13;;;;;;;30.53;38.48;99382.00;5052247;28;20502;-76
2022/06/23 16:33:18;;;;;;;10.68;3.20;;;;;;;30.53;38.68;99371.00;5050016;28;20402;-77
2022/06/23 16:35:58;;;;;;;5.38;2.80;;;;;;;30.52;38.55;99374.91;5051643;28;20037;-76
2022/06/23 16:38:37;;;;;;;7.32;2.90;;;;;;;30.51;39.35;99376.00;5051334;28;20072;-76
2022/06/23 16:41:44;;;;;;;7.22;2.67;;;;;;;30.49;39.26;99380.22;5051505;28;20390;-76
2022/06/23 16:44:53;;;;;;;9.75;3.20;;;;;;;30.54;39.21;99380.88;5051475;28;20036;-77
2022/06/23 16:47:45;;;;;;;5.88;2.38;;;;;;;30.53;38.66;99379.25;5022805;28;20099;-76
2022/06/23 16:50:29;;;;;;;6.15;2.90;;;;;;;30.45;39.29;99362.78;5048377;28;20437;-77
2022/06/23 16:53:11;;;;;;;8.70;2.25;;;;;;;30.49;38.21;99359.06;5051868;28;20047;-77
2022/06/23 16:55:51;;;;;;;5.68;2.50;;;;;;;30.45;37.97;99352.63;5051770;28;20029;-76
2022/06/23 16:58:40;;;;;;;11.23;3.47;;;;;;;30.44;38.13;99355.66;5066965;28;20037;-76